M I D A S
Marine Information and Data Acquisition System
Tripno 998 of the Zeeleeuw from 2005-07-18 09:06:22 to 2005-07-18 11:51:56
Back to CruiseResearch ActivitiesStationsMapUnderway DataData graphs

EquipmentUnitsComment
TimeDGPSUTC
LatitudeDGPSDM.mWGS84
LongitudeDGPSDM.mWGS84
TemperatureSBE03/SBE38deg celciusITS90
ConductivitySBE21S/mITS90
SalinitySBE21 Practical Salinity Units
ChlorophylAChelsea fluorimeterg/lCalibrated in Aceton
Missing or incorrect values are displayed as -999
Sea surface data collected by the RV Zeeleeuw from 2005-07-18 08:07:49 to 2005-07-18 12:01:33
Time Latitude Longitude Temperature Conductivity Salinity ChlorophylA
2005-07-18 08:08:54 51°13.707 2°55.869 22.8814 4.774131 30.833621 -0.612702
2005-07-18 08:09:54 51°13.707 2°55.869 22.8749 4.773814 30.834 -0.612702
2005-07-18 08:10:53 51°13.707 2°55.868 22.8777 4.773393 30.834061 -0.578993
2005-07-18 08:11:54 51°13.707 2°55.868 22.8742 4.772971 30.834122 -0.578993
2005-07-18 08:12:54 51°13.706 2°55.869 22.8838 4.772654 30.834946 -0.578993
2005-07-18 08:13:54 51°13.706 2°55.869 22.8788 4.772232 30.835007 -0.578993
2005-07-18 08:14:54 51°13.706 2°55.869 22.8843 4.771916 30.835387 -0.612702
2005-07-18 08:15:54 51°13.707 2°55.869 22.8856 4.771494 30.83456 -0.578993
2005-07-18 08:16:53 51°13.707 2°55.869 22.8886 4.771072 30.835511 -0.578993
2005-07-18 08:17:53 51°13.706 2°55.869 22.9001 4.770756 30.835891 -0.578993
2005-07-18 08:18:54 51°13.707 2°55.869 22.8985 4.770334 30.835508 -0.578993
2005-07-18 08:19:53 51°13.707 2°55.868 22.9017 4.769912 30.835126 -0.578993
2005-07-18 08:20:53 51°13.707 2°55.868 22.9035 4.769595 30.834616 -0.578993
2005-07-18 08:21:54 51°13.708 2°55.868 22.907 4.76949 30.836078 -0.612702
2005-07-18 08:22:54 51°13.707 2°55.868 22.9097 4.769068 30.835696 -0.578993
2005-07-18 08:23:53 51°13.707 2°55.867 22.9111 4.768646 30.834868 -0.578993
2005-07-18 08:24:54 51°13.706 2°55.87 22.9106 4.768541 30.83633 -0.578993
2005-07-18 08:25:54 51°13.707 2°55.871 22.9118 4.768224 30.836266 -0.612702
2005-07-18 08:26:54 51°13.706 2°55.868 22.9157 4.767908 30.836647 -0.578993
2005-07-18 08:27:53 51°13.706 2°55.868 22.9203 4.767591 30.836584 -0.578993
2005-07-18 08:28:53 51°13.706 2°55.869 22.9216 4.76738 30.837728 -0.578993
2005-07-18 08:29:54 51°13.706 2°55.868 22.9262 4.766959 30.836901 -0.578993
2005-07-18 08:30:54 51°13.706 2°55.867 22.9314 4.766642 30.836837 -0.578993
2005-07-18 08:31:53 51°13.706 2°55.869 22.9318 4.766431 30.837983 -0.578993
2005-07-18 08:32:54 51°13.706 2°55.868 22.9374 4.76622 30.838237 -0.612702
2005-07-18 08:33:53 51°13.707 2°55.868 22.9425 4.765904 30.838619 -0.612702
2005-07-18 08:34:54 51°13.706 2°55.868 22.9458 4.765587 30.838556 -0.612702
2005-07-18 08:35:53 51°13.705 2°55.868 22.9459 4.765271 30.838938 -0.612702
2005-07-18 08:36:54 51°13.705 2°55.868 22.9505 4.764955 30.838875 -0.612702
2005-07-18 08:37:54 51°13.706 2°55.869 22.9536 4.764744 30.83913 -0.612702
2005-07-18 08:38:54 51°13.706 2°55.869 22.958 4.764427 30.839512 -0.578993
2005-07-18 08:39:54 51°13.707 2°55.87 22.9585 4.764322 30.840977 -0.578993
2005-07-18 08:40:54 51°13.706 2°55.87 22.9624 4.764005 30.840469 -0.612702
2005-07-18 08:41:53 51°13.706 2°55.871 22.9659 4.763689 30.840852 -0.578993
2005-07-18 08:42:53 51°13.706 2°55.87 22.9679 4.763372 30.840789 -0.578993
2005-07-18 08:43:54 51°13.707 2°55.869 22.9709 4.763056 30.840726 -0.578993
2005-07-18 08:44:53 51°13.707 2°55.869 22.9735 4.762845 30.841428 -0.578993
2005-07-18 08:45:54 51°13.706 2°55.869 22.979 4.762634 30.842575 -0.578993
2005-07-18 08:46:53 51°13.707 2°55.869 22.9788 4.762212 30.841302 -0.612702
2005-07-18 08:47:53 51°13.71 2°55.87 22.9832 4.762107 30.842769 -0.578993
2005-07-18 08:48:53 51°13.707 2°55.869 22.9845 4.761685 30.842388 -0.578993
2005-07-18 08:49:53 51°13.707 2°55.869 22.9896 4.761474 30.842644 -0.578993
2005-07-18 08:50:53 51°13.709 2°55.87 22.9933 4.761157 30.842582 -0.578993
2005-07-18 08:51:53 51°13.706 2°55.869 22.9951 4.760841 30.843412 -0.612702
2005-07-18 08:52:54 51°13.706 2°55.869 22.9991 4.76063 30.843669 -0.578993
2005-07-18 08:53:51 51°13.707 2°55.871 22.9999 4.760314 30.843607 -0.578993
2005-07-18 08:54:52 51°13.707 2°55.87 23.0036 4.759997 30.843545 -0.612702
2005-07-18 08:55:52 51°13.708 2°55.87 23.0103 4.759786 30.844248 -0.578993
2005-07-18 08:56:52 51°13.708 2°55.869 23.0114 4.759364 30.843421 -0.612702
2005-07-18 08:57:52 51°13.707 2°55.869 23.0126 4.759153 30.844571 -0.578993
2005-07-18 08:58:52 51°13.708 2°55.869 23.021 4.758732 30.843744 -0.578993
2005-07-18 08:59:52 51°13.71 2°55.869 23.023 4.758626 30.845659 -0.612702
2005-07-18 09:00:53 51°13.709 2°55.869 23.0304 4.758415 30.845916 -0.578993
2005-07-18 09:01:52 51°13.708 2°55.869 23.0372 4.757888 30.844771 -0.578993
2005-07-18 09:02:52 51°13.708 2°55.869 23.034 4.757677 30.845475 -0.612702
2005-07-18 09:03:52 51°13.707 2°55.869 23.0196 4.75736 30.845414 -0.578993
2005-07-18 09:04:53 51°13.706 2°55.868 23.0445 4.757149 30.845224 -0.578993
2005-07-18 09:05:52 51°13.706 2°55.869 23.049 4.756833 30.84561 -0.578993
2005-07-18 09:06:53 51°13.706 2°55.867 23.0733 4.756622 30.845867 -0.578993
2005-07-18 09:07:52 51°13.686 2°55.905 23.0606 4.7562 30.844594 -0.612702
2005-07-18 09:08:52 51°13.644 2°55.97 23.0385 4.755989 30.845298 -0.612702
2005-07-18 09:09:52 51°13.597 2°56.025 23.0595 4.755884 30.846321 -0.578993
2005-07-18 09:10:53 51°13.563 2°56.091 23.0538 4.755778 30.84645 -0.578993
2005-07-18 09:11:53 51°13.548 2°56.168 23.0319 4.755356 30.84607 -0.612702
2005-07-18 09:12:53 51°13.552 2°56.184 23.0094 4.755145 30.844987 -0.612702
2005-07-18 09:13:53 51°13.551 2°56.184 22.9742 4.754829 30.844926 -0.612702
2005-07-18 09:14:53 51°13.548 2°56.182 23.0965 4.754618 30.846525 -0.578993
2005-07-18 09:15:52 51°13.591 2°56.056 23.0081 4.754618 30.84742 -0.612702
2005-07-18 09:16:52 51°13.668 2°55.869 23.0297 4.754196 30.849725 -0.578993
2005-07-18 09:17:53 51°13.755 2°55.703 23.016 4.753985 30.847746 -0.578993
2005-07-18 09:18:51 51°13.867 2°55.608 23.0616 4.753563 30.847367 -0.578993
2005-07-18 09:19:53 51°14.008 2°55.528 23.071 4.753352 30.84852 -0.578993
2005-07-18 09:20:53 51°14.147 2°55.427 23.0439 4.753036 30.847118 -0.612702
2005-07-18 09:21:53 51°14.289 2°55.253 23.0474 4.752931 30.848589 -0.578993
2005-07-18 09:22:52 51°14.402 2°55.032 22.9841 4.75272 30.849295 -0.578993
2005-07-18 09:23:52 51°14.591 2°54.942 23.0233 4.752403 30.849683 -0.578993
2005-07-18 09:24:51 51°14.819 2°54.883 23.0207 4.752403 30.851026 -0.578993
2005-07-18 09:25:51 51°15.051 2°54.816 23.0241 4.751981 30.849305 -0.578993
2005-07-18 09:26:53 51°15.288 2°54.738 23.0206 4.751876 30.850329 -0.578993
2005-07-18 09:27:53 51°15.519 2°54.659 23.0228 4.75177 30.851354 -0.612702
2005-07-18 09:28:52 51°15.747 2°54.571 23.0301 4.751243 30.849314 -0.578993
2005-07-18 09:29:53 51°15.976 2°54.486 23.0152 4.751137 30.850787 -0.578993
2005-07-18 09:30:52 51°16.128 2°54.433 23.0415 4.750716 30.849961 -0.578993
2005-07-18 09:31:52 51°16.224 2°54.383 23.0276 4.750505 30.850668 -0.578993
2005-07-18 09:32:53 51°16.272 2°54.344 23.0495 4.750294 30.850927 -0.578993
2005-07-18 09:33:53 51°16.297 2°54.354 23.0707 4.750083 30.850738 -0.612702
2005-07-18 09:34:52 51°16.318 2°54.356 23.0783 4.749766 30.851575 -0.578993
2005-07-18 09:35:51 51°16.338 2°54.366 23.0757 4.749555 30.852282 -0.612702
2005-07-18 09:36:51 51°16.357 2°54.381 23.0982 4.74945 30.85286 -0.578993
2005-07-18 09:37:52 51°16.377 2°54.4 23.1061 4.748923 30.851268 -0.578993
2005-07-18 09:38:52 51°16.397 2°54.421 23.1178 4.748712 30.851527 -0.612702
2005-07-18 09:39:52 51°16.418 2°54.444 23.1239 4.748712 30.85332 -0.578993
2005-07-18 09:40:52 51°16.438 2°54.469 23.1537 4.74829 30.852046 -0.578993
2005-07-18 09:41:51 51°16.457 2°54.494 23.1577 4.748079 30.852754 -0.612702
2005-07-18 09:42:52 51°16.477 2°54.521 23.1659 4.747868 30.85391 -0.578993
2005-07-18 09:43:53 51°16.496 2°54.547 23.1841 4.747551 30.852955 -0.545283
2005-07-18 09:44:52 51°16.516 2°54.574 23.1904 4.747446 30.85443 -0.612702
2005-07-18 09:45:53 51°16.536 2°54.602 23.1967 4.74713 30.854372 -0.578993
2005-07-18 09:46:53 51°16.555 2°54.626 23.2116 4.746813 30.853865 -0.578993
2005-07-18 09:47:53 51°16.533 2°54.6 23.185 4.746602 30.854573 -0.578993
2005-07-18 09:48:53 51°16.459 2°54.559 23.1772 4.746391 30.855282 -0.545283
2005-07-18 09:49:53 51°16.382 2°54.483 23.2355 4.745969 30.854905 -0.578993
2005-07-18 09:50:53 51°16.314 2°54.395 23.2325 4.745758 30.855165 -0.578993
2005-07-18 09:51:53 51°16.267 2°54.342 23.2599 4.745547 30.854977 -0.612702
2005-07-18 09:52:53 51°16.239 2°54.298 23.2725 4.745442 30.856005 -0.612702
2005-07-18 09:53:52 51°16.222 2°54.278 23.2872 4.74502 30.855179 -0.578993
2005-07-18 09:54:53 51°16.21 2°54.276 23.3008 4.744809 30.85544 -0.578993
2005-07-18 09:55:53 51°16.203 2°54.289 23.3129 4.744704 30.856468 -0.578993
2005-07-18 09:56:53 51°16.2 2°54.31 23.3199 4.744282 30.854296 -0.545283
2005-07-18 09:57:52 51°16.198 2°54.328 23.3334 4.743965 30.854238 -0.612702
2005-07-18 09:58:53 51°16.201 2°54.341 23.3418 4.743965 30.855585 -0.578993
2005-07-18 09:59:53 51°16.21 2°54.351 23.3691 4.743649 30.855527 -0.578993
2005-07-18 10:00:53 51°16.225 2°54.365 23.3651 4.743438 30.85489 -0.612702
2005-07-18 10:01:52 51°16.241 2°54.377 23.3875 4.743332 30.856368 -0.545283
2005-07-18 10:02:53 51°16.256 2°54.386 23.3827 4.743016 30.855861 -0.578993
2005-07-18 10:03:52 51°16.271 2°54.393 23.4017 4.743122 30.858874 -0.578993
2005-07-18 10:04:53 51°16.287 2°54.404 23.417 4.742594 30.856832 -0.578993
2005-07-18 10:05:53 51°16.302 2°54.418 23.4295 4.742172 30.855558 -0.578993
2005-07-18 10:06:53 51°16.319 2°54.436 21.9382 4.742278 30.857673 -0.578993
2005-07-18 10:07:53 51°16.335 2°54.456 20.1869 4.279848 30.220517 2.387435
2005-07-18 10:08:53 51°16.351 2°54.479 20.1514 4.284073 30.605112 2.791947
2005-07-18 10:09:53 51°16.361 2°54.483 20.139 4.256236 30.419114 2.421144
2005-07-18 10:10:53 51°16.345 2°54.489 20.1253 4.292194 30.722787 2.758238
2005-07-18 10:11:53 51°16.322 2°54.579 20.1127 4.290507 30.722063 3.263879
2005-07-18 10:12:53 51°16.373 2°54.695 20.1106 4.294936 30.769209 3.297589
2005-07-18 10:13:53 51°16.456 2°54.774 20.1077 4.272475 30.589212 2.994204
2005-07-18 10:14:52 51°16.529 2°54.822 20.1266 4.275639 30.6155 2.960494
2005-07-18 10:15:53 51°16.597 2°54.867 20.1292 4.282704 30.658195 3.027913
2005-07-18 10:16:52 51°16.659 2°54.91 20.122 4.283758 30.669674 2.825657
2005-07-18 10:17:53 51°16.721 2°54.956 20.1257 4.285867 30.69162 2.791947
2005-07-18 10:18:52 51°16.779 2°54.999 20.1167 4.285973 30.692463 2.994204
2005-07-18 10:19:53 51°16.839 2°55.041 20.089 4.266254 30.544598 3.19646
2005-07-18 10:20:52 51°16.897 2°55.077 20.0861 4.302845 30.853984 2.825657
2005-07-18 10:21:53 51°16.955 2°55.126 20.086 4.296624 30.807275 2.859366
2005-07-18 10:22:53 51°17.01 2°55.174 20.0828 4.305587 30.879009 2.758238
2005-07-18 10:23:53 51°17.067 2°55.212 20.087 4.322354 31.013776 2.724529
2005-07-18 10:24:52 51°17.124 2°55.252 20.0915 4.320034 30.991585 2.6234
2005-07-18 10:25:53 51°17.197 2°55.271 20.1009 4.324147 31.022974 3.095332
2005-07-18 10:26:53 51°17.206 2°55.163 20.1272 4.316765 30.955111 3.095332
2005-07-18 10:27:52 51°17.082 2°55.092 20.131 4.321615 30.9754 3.061623
2005-07-18 10:28:52 51°16.903 2°55.01 20.1106 4.32151 30.978675 2.758238
2005-07-18 10:29:53 51°16.71 2°54.924 20.0954 4.320561 30.987045 2.758238
2005-07-18 10:30:53 51°16.566 2°54.847 20.0677 4.316449 30.967512 2.893076
2005-07-18 10:31:52 51°16.474 2°54.692 20.0495 4.314762 30.965335 2.825657
2005-07-18 10:32:53 51°16.395 2°54.572 20.0585 4.311493 30.954608 2.65711
2005-07-18 10:33:53 51°16.338 2°54.456 20.0399 4.312864 30.961469 2.926785
2005-07-18 10:34:53 51°16.297 2°54.375 20.0267 4.312548 30.973376 3.061623
2005-07-18 10:35:53 51°16.255 2°54.311 20.0121 4.316977 31.01457 2.791947
2005-07-18 10:36:53 51°16.245 2°54.296 19.9952 4.314024 31.004844 2.825657
2005-07-18 10:37:53 51°16.248 2°54.296 19.9933 4.318875 31.052565 2.825657
2005-07-18 10:38:53 51°16.254 2°54.286 19.9931 4.307592 30.963056 2.859366
2005-07-18 10:39:53 51°16.29 2°54.125 19.9902 4.321406 31.074435 3.129042
2005-07-18 10:40:53 51°16.393 2°53.93 20.0057 4.30833 30.970012 3.331298
2005-07-18 10:41:52 51°16.52 2°53.682 20.0543 4.327733 31.107587 3.600973
2005-07-18 10:42:53 51°16.659 2°53.411 20.0638 4.333427 31.124752 3.23017
2005-07-18 10:43:53 51°16.802 2°53.149 20.023 4.324569 31.048045 3.263879
2005-07-18 10:44:52 51°16.956 2°52.909 19.9643 4.326468 31.103137 2.893076
2005-07-18 10:45:53 51°17.131 2°52.672 19.9225 4.32689 31.14912 3.027913
2005-07-18 10:46:53 51°17.309 2°52.45 19.8791 4.326153 31.169742 3.263879
2005-07-18 10:47:53 51°17.489 2°52.227 19.8352 4.326153 31.205226 3.331298
2005-07-18 10:48:52 51°17.667 2°52.011 19.7805 4.336383 31.314886 3.432426
2005-07-18 10:49:53 51°17.847 2°51.782 19.6565 4.351358 31.48053 3.735811
2005-07-18 10:50:53 51°18.02 2°51.555 19.666 4.376037 31.778243 4.409999
2005-07-18 10:51:53 51°18.198 2°51.323 19.6941 4.34577 31.498333 4.679674
2005-07-18 10:52:53 51°18.35 2°51.129 19.6406 4.35041 31.533772 5.117896
2005-07-18 10:53:53 51°18.451 2°51.019 19.6068 4.357477 31.630917 5.657247
2005-07-18 10:54:53 51°18.527 2°50.974 19.5754 4.361801 31.688951 5.792084
2005-07-18 10:55:53 51°18.537 2°50.991 19.5163 4.348198 31.604713 5.825794
2005-07-18 10:56:53 51°18.546 2°51.012 19.4934 4.338707 31.568739 7.039332
2005-07-18 10:57:52 51°18.558 2°51.035 19.4738 4.361064 31.76822 6.904494
2005-07-18 10:58:53 51°18.574 2°51.057 19.4718 4.378992 31.923344 8.421418
2005-07-18 10:59:53 51°18.591 2°51.08 19.4716 4.372349 31.870854 8.28658
2005-07-18 11:00:53 51°18.61 2°51.103 19.4768 4.378887 31.923026 8.960768
2005-07-18 11:01:53 51°18.629 2°51.123 19.5168 4.375618 31.887757 9.230443
2005-07-18 11:02:53 51°18.653 2°51.14 19.5285 4.370661 31.819931 9.061896
2005-07-18 11:03:53 51°18.684 2°51.156 19.5249 4.375617 31.857015 9.533828
2005-07-18 11:04:52 51°18.723 2°51.18 19.5193 4.371293 31.825077 8.28658
2005-07-18 11:05:53 51°18.769 2°51.223 19.5084 4.372981 31.844727 8.118033
2005-07-18 11:06:53 51°18.816 2°51.264 19.5123 4.375406 31.868235 8.016905
2005-07-18 11:07:53 51°18.864 2°51.303 19.4872 4.378676 31.898618 8.657383
2005-07-18 11:08:53 51°18.912 2°51.338 19.4723 4.378254 31.912467 8.522546
2005-07-18 11:09:53 51°18.961 2°51.363 19.4755 4.373614 31.88224 8.118033
2005-07-18 11:10:53 51°19.009 2°51.385 19.4724 4.373825 31.880178 8.387708
2005-07-18 11:11:53 51°19.053 2°51.422 19.4471 4.38068 31.942499 8.387708
2005-07-18 11:12:53 51°19.094 2°51.467 19.4165 4.373931 31.911846 8.016905
2005-07-18 11:13:53 51°19.135 2°51.51 19.4226 4.380259 31.978073 8.758512
2005-07-18 11:14:53 51°19.176 2°51.575 19.3905 4.391121 32.065065 8.657383
2005-07-18 11:15:53 51°19.17 2°51.685 19.3733 4.388907 32.072571 8.657383
2005-07-18 11:16:52 51°19.118 2°51.699 19.4206 4.388485 32.062592 8.85964
2005-07-18 11:17:53 51°19.009 2°51.587 19.4372 4.389645 32.048124 8.421418
2005-07-18 11:18:53 51°18.867 2°51.455 19.4837 4.386164 32.009417 8.623674
2005-07-18 11:19:53 51°18.727 2°51.306 19.5036 4.383527 31.943513 7.342717
2005-07-18 11:20:53 51°18.597 2°51.134 19.52 4.382156 31.917224 7.342717
2005-07-18 11:21:53 51°18.501 2°50.98 19.535 4.382367 31.9184 7.578683
2005-07-18 11:22:53 51°18.486 2°50.936 19.5374 4.382155 31.902113 7.309007
2005-07-18 11:23:53 51°18.488 2°50.925 19.535 4.382788 31.9078 7.17417
2005-07-18 11:24:53 51°18.491 2°50.919 19.5411 4.382999 31.910595 7.71352
2005-07-18 11:25:53 51°18.497 2°50.917 19.5445 4.383843 31.913681 7.578683
2005-07-18 11:26:52 51°18.503 2°50.919 19.5449 4.383737 31.909586 7.848358
2005-07-18 11:27:53 51°18.506 2°50.919 19.5391 4.383843 31.912062 8.488836
2005-07-18 11:28:53 51°18.431 2°50.865 19.539 4.383843 31.91422 9.769794
2005-07-18 11:29:53 51°18.244 2°50.897 19.491 4.384159 31.92273 9.702375
2005-07-18 11:30:53 51°18.065 2°51.076 19.4522 4.39112 32.017271 9.39899
2005-07-18 11:31:53 51°17.92 2°51.336 19.502 4.393652 32.054181 8.556255
2005-07-18 11:32:53 51°17.771 2°51.597 19.5058 4.388167 31.97318 9.230443
2005-07-18 11:33:52 51°17.621 2°51.841 19.399 4.401667 32.130426 8.623674
2005-07-18 11:34:53 51°17.459 2°52.086 19.469 4.403566 32.178103 9.129315
2005-07-18 11:35:52 51°17.295 2°52.3 19.6357 4.388062 31.971781 9.567537
2005-07-18 11:36:52 51°17.112 2°52.482 19.7531 4.369815 31.70746 10.241725
2005-07-18 11:37:53 51°16.921 2°52.666 19.7959 4.355366 31.516086 8.556255
2005-07-18 11:38:53 51°16.735 2°52.846 19.753 4.362642 31.555823 8.387708
2005-07-18 11:39:53 51°16.548 2°53.029 19.7664 4.368337 31.629974 7.14046
2005-07-18 11:40:52 51°16.367 2°53.207 19.8541 4.364119 31.576761 7.544973
2005-07-18 11:41:53 51°16.169 2°53.372 19.9487 4.356735 31.447962 7.275298
2005-07-18 11:42:53 51°15.975 2°53.53 20.0082 4.351567 31.337068 6.634819
2005-07-18 11:43:52 51°15.789 2°53.688 20.1682 4.343024 31.218875 7.71352
2005-07-18 11:44:53 51°15.593 2°53.849 20.2376 4.304637 30.798167 5.994341
2005-07-18 11:45:52 51°15.402 2°53.999 20.2606 4.290295 30.644555 6.02805
2005-07-18 11:46:52 51°15.207 2°54.15 20.2375 4.287658 30.613914 5.016768
2005-07-18 11:47:52 51°15.013 2°54.305 20.2151 4.29156 30.673437 4.983059
2005-07-18 11:48:53 51°14.817 2°54.462 20.1742 4.30084 30.761224 4.645965
2005-07-18 11:49:53 51°14.626 2°54.633 20.2425 4.296833 30.744537 4.91564
2005-07-18 11:50:53 51°14.457 2°54.857 20.414 4.296515 30.659625 4.409999
2005-07-18 11:51:53 51°14.336 2°55.103 20.4925 4.255177 30.202459 4.275161
2005-07-18 11:52:52 51°14.235 2°55.311 20.6159 4.173143 29.503645 4.174033
2005-07-18 11:53:52 51°14.13 2°55.415 20.728 4.096598 28.845712 4.477418
2005-07-18 11:54:53 51°14.022 2°55.491 20.7881 3.9897 27.934059 5.117896
2005-07-18 11:55:53 51°13.907 2°55.573 20.8003 3.955967 27.641414 5.623537
2005-07-18 11:56:53 51°13.793 2°55.66 20.7761 3.948167 27.574104 5.556118
2005-07-18 11:57:53 51°13.714 2°55.769 20.9238 3.99497 27.958241 5.758375
2005-07-18 11:58:53 51°13.666 2°55.894 20.9818 3.783321 26.204819 5.758375
2005-07-18 11:59:52 51°13.641 2°55.987 20.9939 3.731683 25.793747 5.859503
2005-07-18 12:00:53 51°13.624 2°56.046 20.9331 3.700807 25.557626 6.095469